sensor_id;sensor_type;location;lat;lon;timestamp;pressure;altitude;pressure_sealevel;temperature;humidity
1029;BME280;503;48.120;11.488;2022-09-09T00:02:24;95185.66;;;20.66;54.16
1029;BME280;503;48.120;11.488;2022-09-09T00:04:31;95177.22;;;20.68;53.97
1029;BME280;503;48.120;11.488;2022-09-09T00:07:01;95180.41;;;20.77;53.76
1029;BME280;503;48.120;11.488;2022-09-09T00:09:29;95178.44;;;20.74;53.66
1029;BME280;503;48.120;11.488;2022-09-09T00:12:00;95184.19;;;20.72;53.85
1029;BME280;503;48.120;11.488;2022-09-09T00:14:48;95181.09;;;20.70;53.83
1029;BME280;503;48.120;11.488;2022-09-09T00:17:23;95179.44;;;20.62;54.32
1029;BME280;503;48.120;11.488;2022-09-09T00:19:53;95175.63;;;20.63;54.12
1029;BME280;503;48.120;11.488;2022-09-09T00:22:23;95180.25;;;20.63;54.23
1029;BME280;503;48.120;11.488;2022-09-09T00:27:16;95182.25;;;20.69;54.21
1029;BME280;503;48.120;11.488;2022-09-09T00:29:43;95178.06;;;20.75;54.29
1029;BME280;503;48.120;11.488;2022-09-09T00:32:14;95166.88;;;20.77;53.79
1029;BME280;503;48.120;11.488;2022-09-09T00:34:47;95166.84;;;20.73;54.36
1029;BME280;503;48.120;11.488;2022-09-09T00:37:12;95174.09;;;20.66;54.14
1029;BME280;503;48.120;11.488;2022-09-09T00:39:39;95166.69;;;20.59;54.51
1029;BME280;503;48.120;11.488;2022-09-09T00:44:36;95178.97;;;20.53;54.67
1029;BME280;503;48.120;11.488;2022-09-09T00:52:21;95179.91;;;20.41;55.02
1029;BME280;503;48.120;11.488;2022-09-09T00:54:51;95176.22;;;20.26;55.17
1029;BME280;503;48.120;11.488;2022-09-09T00:57:28;95178.75;;;20.12;55.52
1029;BME280;503;48.120;11.488;2022-09-09T01:02:29;95178.84;;;19.93;56.06
1029;BME280;503;48.120;11.488;2022-09-09T01:05:02;95182.69;;;19.92;56.25
1029;BME280;503;48.120;11.488;2022-09-09T01:07:30;95178.41;;;19.91;56.33
1029;BME280;503;48.120;11.488;2022-09-09T01:09:57;95178.91;;;19.96;56.50
1029;BME280;503;48.120;11.488;2022-09-09T01:12:24;95186.38;;;20.07;56.39
1029;BME280;503;48.120;11.488;2022-09-09T01:15:08;95182.25;;;20.16;55.91
1029;BME280;503;48.120;11.488;2022-09-09T01:22:36;95175.91;;;20.32;55.66
1029;BME280;503;48.120;11.488;2022-09-09T01:25:13;95176.34;;;20.34;55.72
1029;BME280;503;48.120;11.488;2022-09-09T01:27:42;95178.69;;;20.35;55.59
1029;BME280;503;48.120;11.488;2022-09-09T01:30:10;95176.03;;;20.39;55.52
1029;BME280;503;48.120;11.488;2022-09-09T01:32:37;95174.94;;;20.43;55.34
1029;BME280;503;48.120;11.488;2022-09-09T01:35:04;95177.19;;;20.38;55.53
1029;BME280;503;48.120;11.488;2022-09-09T01:37:31;95167.19;;;20.42;55.47
1029;BME280;503;48.120;11.488;2022-09-09T01:39:56;95177.22;;;20.41;55.33
1029;BME280;503;48.120;11.488;2022-09-09T01:42:21;95168.25;;;20.34;55.63
1029;BME280;503;48.120;11.488;2022-09-09T01:44:46;95176.28;;;20.30;55.63
1029;BME280;503;48.120;11.488;2022-09-09T01:47:11;95173.13;;;20.24;55.89
1029;BME280;503;48.120;11.488;2022-09-09T01:49:37;95167.47;;;20.07;56.26
1029;BME280;503;48.120;11.488;2022-09-09T01:52:02;95172.81;;;20.03;56.16
1029;BME280;503;48.120;11.488;2022-09-09T01:54:28;95181.22;;;19.98;56.27
1029;BME280;503;48.120;11.488;2022-09-09T02:02:17;95172.59;;;19.89;56.74
1029;BME280;503;48.120;11.488;2022-09-09T02:04:49;95178.63;;;19.79;57.19
1029;BME280;503;48.120;11.488;2022-09-09T02:09:51;95172.75;;;19.73;57.23
1029;BME280;503;48.120;11.488;2022-09-09T02:12:18;95166.56;;;19.72;57.33
1029;BME280;503;48.120;11.488;2022-09-09T02:14:47;95158.09;;;19.74;57.17
1029;BME280;503;48.120;11.488;2022-09-09T02:17:15;95153.91;;;19.77;57.25
1029;BME280;503;48.120;11.488;2022-09-09T02:19:48;95153.13;;;19.76;56.98
1029;BME280;503;48.120;11.488;2022-09-09T02:22:15;95164.28;;;19.74;57.18
1029;BME280;503;48.120;11.488;2022-09-09T02:24:42;95162.06;;;19.80;57.25
1029;BME280;503;48.120;11.488;2022-09-09T02:27:08;95163.56;;;19.78;57.37
1029;BME280;503;48.120;11.488;2022-09-09T02:29:35;95173.94;;;19.76;57.65
1029;BME280;503;48.120;11.488;2022-09-09T02:32:03;95170.16;;;19.80;57.52
1029;BME280;503;48.120;11.488;2022-09-09T02:34:29;95160.25;;;19.88;57.40
1029;BME280;503;48.120;11.488;2022-09-09T02:36:56;95157.31;;;19.96;57.21
1029;BME280;503;48.120;11.488;2022-09-09T02:39:22;95156.94;;;19.98;57.26
1029;BME280;503;48.120;11.488;2022-09-09T02:41:47;95157.78;;;20.02;57.36
1029;BME280;503;48.120;11.488;2022-09-09T02:44:13;95157.78;;;20.02;57.16
1029;BME280;503;48.120;11.488;2022-09-09T02:49:09;95154.19;;;19.94;57.25
1029;BME280;503;48.120;11.488;2022-09-09T02:51:40;95149.53;;;19.91;57.45
1029;BME280;503;48.120;11.488;2022-09-09T02:54:12;95151.00;;;19.89;57.46
1029;BME280;503;48.120;11.488;2022-09-09T02:56:42;95167.16;;;19.85;57.59
1029;BME280;503;48.120;11.488;2022-09-09T02:59:10;95154.41;;;19.86;57.51
1029;BME280;503;48.120;11.488;2022-09-09T03:01:36;95150.16;;;19.85;57.59
1029;BME280;503;48.120;11.488;2022-09-09T03:04:05;95155.56;;;19.85;57.70
1029;BME280;503;48.120;11.488;2022-09-09T03:06:30;95153.63;;;19.82;57.71
1029;BME280;503;48.120;11.488;2022-09-09T03:08:55;95149.03;;;19.86;57.60
1029;BME280;503;48.120;11.488;2022-09-09T03:11:24;95145.56;;;19.85;57.87
1029;BME280;503;48.120;11.488;2022-09-09T03:13:49;95152.09;;;19.84;57.98
1029;BME280;503;48.120;11.488;2022-09-09T03:16:14;95147.84;;;19.83;57.85
1029;BME280;503;48.120;11.488;2022-09-09T03:18:40;95144.78;;;19.85;57.83
1029;BME280;503;48.120;11.488;2022-09-09T03:21:05;95149.41;;;19.84;58.09
1029;BME280;503;48.120;11.488;2022-09-09T03:23:31;95139.34;;;19.81;57.87
1029;BME280;503;48.120;11.488;2022-09-09T03:25:57;95149.34;;;19.81;57.97
1029;BME280;503;48.120;11.488;2022-09-09T03:28:23;95146.94;;;19.76;58.10
1029;BME280;503;48.120;11.488;2022-09-09T03:30:50;95150.31;;;19.69;58.39
1029;BME280;503;48.120;11.488;2022-09-09T03:33:15;95143.00;;;19.69;58.43
1029;BME280;503;48.120;11.488;2022-09-09T03:35:44;95149.91;;;19.67;58.47
1029;BME280;503;48.120;11.488;2022-09-09T03:38:11;95135.97;;;19.65;58.35
1029;BME280;503;48.120;11.488;2022-09-09T03:40:36;95142.91;;;19.62;58.46
1029;BME280;503;48.120;11.488;2022-09-09T03:43:01;95156.38;;;19.62;58.40
1029;BME280;503;48.120;11.488;2022-09-09T03:45:26;95143.59;;;19.59;58.52
1029;BME280;503;48.120;11.488;2022-09-09T03:47:52;95143.59;;;19.59;58.76
1029;BME280;503;48.120;11.488;2022-09-09T03:50:17;95149.00;;;19.59;58.91
1029;BME280;503;48.120;11.488;2022-09-09T03:52:43;95147.97;;;19.67;58.85
1029;BME280;503;48.120;11.488;2022-09-09T03:55:09;95147.69;;;19.72;58.99
1029;BME280;503;48.120;11.488;2022-09-09T03:57:34;95149.03;;;19.86;58.92
1029;BME280;503;48.120;11.488;2022-09-09T04:00:04;95148.47;;;19.99;58.27
1029;BME280;503;48.120;11.488;2022-09-09T04:02:30;95139.75;;;20.10;58.15
1029;BME280;503;48.120;11.488;2022-09-09T04:04:55;95137.97;;;20.21;57.78
1029;BME280;503;48.120;11.488;2022-09-09T04:07:21;95135.00;;;20.30;57.65
1029;BME280;503;48.120;11.488;2022-09-09T04:09:46;95136.28;;;20.39;57.22
1029;BME280;503;48.120;11.488;2022-09-09T04:12:11;95136.34;;;20.43;57.12
1029;BME280;503;48.120;11.488;2022-09-09T04:14:38;95130.56;;;20.44;56.79
1029;BME280;503;48.120;11.488;2022-09-09T04:17:03;95130.19;;;20.46;56.86
1029;BME280;503;48.120;11.488;2022-09-09T04:19:31;95119.84;;;20.48;56.73
1029;BME280;503;48.120;11.488;2022-09-09T04:21:56;95122.22;;;20.53;56.67
1029;BME280;503;48.120;11.488;2022-09-09T04:24:21;95124.53;;;20.55;56.41
1029;BME280;503;48.120;11.488;2022-09-09T04:26:47;95122.16;;;20.49;56.36
1029;BME280;503;48.120;11.488;2022-09-09T04:29:12;95112.34;;;20.38;56.64
1029;BME280;503;48.120;11.488;2022-09-09T04:31:37;95104.78;;;20.20;56.81
1029;BME280;503;48.120;11.488;2022-09-09T04:34:06;95108.16;;;20.14;57.02
1029;BME280;503;48.120;11.488;2022-09-09T04:36:32;95111.13;;;20.05;57.05
1029;BME280;503;48.120;11.488;2022-09-09T04:38:58;95113.28;;;19.92;57.25
1029;BME280;503;48.120;11.488;2022-09-09T04:41:23;95108.50;;;19.82;57.45
1029;BME280;503;48.120;11.488;2022-09-09T04:43:48;95138.38;;;19.70;58.04
1029;BME280;503;48.120;11.488;2022-09-09T04:46:13;95113.63;;;19.64;57.99
1029;BME280;503;48.120;11.488;2022-09-09T04:48:40;95113.84;;;19.56;58.35
1029;BME280;503;48.120;11.488;2022-09-09T04:51:06;95110.78;;;19.57;58.59
1029;BME280;503;48.120;11.488;2022-09-09T04:53:32;95112.00;;;19.60;58.56
1029;BME280;503;48.120;11.488;2022-09-09T04:56:05;95117.75;;;19.58;58.69
1029;BME280;503;48.120;11.488;2022-09-09T04:58:31;95115.16;;;19.65;58.55
1029;BME280;503;48.120;11.488;2022-09-09T05:01:07;95107.50;;;19.67;58.53
1029;BME280;503;48.120;11.488;2022-09-09T05:03:32;95112.59;;;19.72;58.63
1029;BME280;503;48.120;11.488;2022-09-09T05:06:05;95102.50;;;19.69;58.42
1029;BME280;503;48.120;11.488;2022-09-09T05:08:30;95111.84;;;19.76;58.21
1029;BME280;503;48.120;11.488;2022-09-09T05:10:55;95117.63;;;19.74;58.12
1029;BME280;503;48.120;11.488;2022-09-09T05:13:20;95112.16;;;19.70;58.07
1029;BME280;503;48.120;11.488;2022-09-09T05:15:54;95117.88;;;19.65;58.24
1029;BME280;503;48.120;11.488;2022-09-09T05:18:19;95117.84;;;19.62;58.37
1029;BME280;503;48.120;11.488;2022-09-09T05:20:44;95125.56;;;19.63;58.32
1029;BME280;503;48.120;11.488;2022-09-09T05:23:10;95122.56;;;19.68;58.57
1029;BME280;503;48.120;11.488;2022-09-09T05:25:38;95120.75;;;19.76;57.90
1029;BME280;503;48.120;11.488;2022-09-09T05:28:03;95123.16;;;19.81;57.80
1029;BME280;503;48.120;11.488;2022-09-09T05:30:29;95128.25;;;19.90;57.70
1029;BME280;503;48.120;11.488;2022-09-09T05:32:57;95131.94;;;20.05;57.49
1029;BME280;503;48.120;11.488;2022-09-09T05:35:22;95135.22;;;20.17;57.26
1029;BME280;503;48.120;11.488;2022-09-09T05:37:48;95130.81;;;20.32;56.80
1029;BME280;503;48.120;11.488;2022-09-09T05:40:13;95138.38;;;20.49;56.29
1029;BME280;503;48.120;11.488;2022-09-09T05:42:38;95135.06;;;20.63;55.86
1029;BME280;503;48.120;11.488;2022-09-09T05:45:04;95132.50;;;20.74;55.72
1029;BME280;503;48.120;11.488;2022-09-09T05:47:30;95128.34;;;20.84;55.21
1029;BME280;503;48.120;11.488;2022-09-09T05:49:55;95131.13;;;20.91;55.13
1029;BME280;503;48.120;11.488;2022-09-09T05:52:20;95136.25;;;20.99;54.84
1029;BME280;503;48.120;11.488;2022-09-09T05:54:45;95130.53;;;21.08;54.66
1029;BME280;503;48.120;11.488;2022-09-09T05:57:11;95142.66;;;21.21;54.35
1029;BME280;503;48.120;11.488;2022-09-09T05:59:36;95147.81;;;21.34;54.13
1029;BME280;503;48.120;11.488;2022-09-09T06:02:01;95149.47;;;21.45;53.91
1029;BME280;503;48.120;11.488;2022-09-09T06:04:26;95151.50;;;21.56;53.47
1029;BME280;503;48.120;11.488;2022-09-09T06:06:51;95151.59;;;21.70;53.18
1029;BME280;503;48.120;11.488;2022-09-09T06:09:17;95155.50;;;21.72;53.08
1029;BME280;503;48.120;11.488;2022-09-09T06:11:42;95151.41;;;21.48;53.14
1029;BME280;503;48.120;11.488;2022-09-09T06:14:08;95150.94;;;21.84;52.75
1029;BME280;503;48.120;11.488;2022-09-09T06:16:33;95144.06;;;21.97;52.76
1029;BME280;503;48.120;11.488;2022-09-09T06:18:58;95139.13;;;22.06;52.32
1029;BME280;503;48.120;11.488;2022-09-09T06:21:24;95144.97;;;22.15;51.78
1029;BME280;503;48.120;11.488;2022-09-09T06:23:50;95141.91;;;22.20;51.84
1029;BME280;503;48.120;11.488;2022-09-09T06:26:19;95145.81;;;22.26;51.54
1029;BME280;503;48.120;11.488;2022-09-09T06:28:49;95137.34;;;22.28;51.28
1029;BME280;503;48.120;11.488;2022-09-09T06:31:15;95133.47;;;22.29;51.17
1029;BME280;503;48.120;11.488;2022-09-09T06:33:42;95132.31;;;22.34;51.15
1029;BME280;503;48.120;11.488;2022-09-09T06:36:27;95141.19;;;22.27;50.89
1029;BME280;503;48.120;11.488;2022-09-09T06:38:53;95142.38;;;22.37;50.84
1029;BME280;503;48.120;11.488;2022-09-09T06:41:19;95148.09;;;22.17;51.03
1029;BME280;503;48.120;11.488;2022-09-09T06:43:45;95145.91;;;22.37;51.06
1029;BME280;503;48.120;11.488;2022-09-09T06:46:12;95137.81;;;22.48;50.68
1029;BME280;503;48.120;11.488;2022-09-09T06:48:41;95152.91;;;22.45;51.01
1029;BME280;503;48.120;11.488;2022-09-09T06:51:10;95150.25;;;22.60;50.56
1029;BME280;503;48.120;11.488;2022-09-09T06:53:36;95157.69;;;22.73;50.26
1029;BME280;503;48.120;11.488;2022-09-09T06:56:13;95151.47;;;22.76;49.76
1029;BME280;503;48.120;11.488;2022-09-09T06:58:42;95163.88;;;22.70;49.83
1029;BME280;503;48.120;11.488;2022-09-09T07:01:09;95163.88;;;22.74;49.89
1029;BME280;503;48.120;11.488;2022-09-09T07:03:35;95171.28;;;22.84;50.17
1029;BME280;503;48.120;11.488;2022-09-09T07:06:00;95168.56;;;22.84;49.72
1029;BME280;503;48.120;11.488;2022-09-09T07:08:26;95172.22;;;22.40;50.14
1029;BME280;503;48.120;11.488;2022-09-09T07:10:51;95183.47;;;22.39;50.66
1029;BME280;503;48.120;11.488;2022-09-09T07:13:19;95196.16;;;21.79;52.14
1029;BME280;503;48.120;11.488;2022-09-09T07:15:46;95218.66;;;19.11;60.65
1029;BME280;503;48.120;11.488;2022-09-09T07:18:11;95195.16;;;20.53;57.49
1029;BME280;503;48.120;11.488;2022-09-09T07:20:36;95212.25;;;21.28;54.70
1029;BME280;503;48.120;11.488;2022-09-09T07:23:01;95209.69;;;21.39;54.42
1029;BME280;503;48.120;11.488;2022-09-09T07:25:27;95214.78;;;21.44;54.45
1029;BME280;503;48.120;11.488;2022-09-09T07:27:53;95214.50;;;21.97;53.00
1029;BME280;503;48.120;11.488;2022-09-09T07:30:19;95206.66;;;22.33;52.31
1029;BME280;503;48.120;11.488;2022-09-09T07:32:44;95207.63;;;22.72;52.04
1029;BME280;503;48.120;11.488;2022-09-09T07:35:10;95210.19;;;23.20;50.78
1029;BME280;503;48.120;11.488;2022-09-09T07:37:38;95212.63;;;23.68;49.46
1029;BME280;503;48.120;11.488;2022-09-09T07:40:03;95206.06;;;24.01;48.08
1029;BME280;503;48.120;11.488;2022-09-09T07:42:29;95207.22;;;24.40;47.47
1029;BME280;503;48.120;11.488;2022-09-09T07:44:55;95208.34;;;24.56;47.31
1029;BME280;503;48.120;11.488;2022-09-09T07:47:20;95221.53;;;24.69;46.56
1029;BME280;503;48.120;11.488;2022-09-09T07:49:45;95214.91;;;24.80;46.29
1029;BME280;503;48.120;11.488;2022-09-09T07:52:11;95220.31;;;24.87;46.14
1029;BME280;503;48.120;11.488;2022-09-09T07:54:36;95220.66;;;24.97;45.93
1029;BME280;503;48.120;11.488;2022-09-09T07:57:02;95181.13;;;24.71;45.92
1029;BME280;503;48.120;11.488;2022-09-09T07:59:28;95222.19;;;25.19;45.62
1029;BME280;503;48.120;11.488;2022-09-09T08:01:54;95222.47;;;25.35;44.97
1029;BME280;503;48.120;11.488;2022-09-09T08:04:20;95223.88;;;25.61;44.92
1029;BME280;503;48.120;11.488;2022-09-09T08:06:47;95222.66;;;25.77;44.12
1029;BME280;503;48.120;11.488;2022-09-09T08:09:13;95230.66;;;26.02;43.66
1029;BME280;503;48.120;11.488;2022-09-09T08:11:39;95237.97;;;26.12;43.43
1029;BME280;503;48.120;11.488;2022-09-09T08:14:05;95240.63;;;26.19;43.18
1029;BME280;503;48.120;11.488;2022-09-09T08:16:31;95241.09;;;26.10;42.99
1029;BME280;503;48.120;11.488;2022-09-09T08:18:57;95249.28;;;26.07;43.38
1029;BME280;503;48.120;11.488;2022-09-09T08:21:23;95248.59;;;25.96;43.00
1029;BME280;503;48.120;11.488;2022-09-09T08:23:50;95249.03;;;25.90;42.39
1029;BME280;503;48.120;11.488;2022-09-09T08:26:27;95248.88;;;25.46;43.47
1029;BME280;503;48.120;11.488;2022-09-09T08:28:53;95255.78;;;25.64;43.64
1029;BME280;503;48.120;11.488;2022-09-09T08:31:23;95254.16;;;25.74;43.52
1029;BME280;503;48.120;11.488;2022-09-09T08:33:48;95252.94;;;24.98;44.18
1029;BME280;503;48.120;11.488;2022-09-09T08:36:15;95263.34;;;23.35;48.58
1029;BME280;503;48.120;11.488;2022-09-09T08:38:41;95265.50;;;22.91;49.50
1029;BME280;503;48.120;11.488;2022-09-09T08:43:34;95266.94;;;22.74;50.78
1029;BME280;503;48.120;11.488;2022-09-09T08:51:09;95277.28;;;21.69;53.99
1029;BME280;503;48.120;11.488;2022-09-09T08:53:38;95273.53;;;21.80;53.15
1029;BME280;503;48.120;11.488;2022-09-09T08:56:08;95268.81;;;21.37;54.55
1029;BME280;503;48.120;11.488;2022-09-09T08:58:45;95276.16;;;21.73;53.88
1029;BME280;503;48.120;11.488;2022-09-09T09:01:16;95263.72;;;22.06;53.22
1029;BME280;503;48.120;11.488;2022-09-09T09:06:23;95261.47;;;22.70;50.66
1029;BME280;503;48.120;11.488;2022-09-09T09:09:38;95256.72;;;23.22;49.04
1029;BME280;503;48.120;11.488;2022-09-09T09:11:39;95258.34;;;23.41;47.81
1029;BME280;503;48.120;11.488;2022-09-09T09:19:14;95258.06;;;24.25;47.05
1029;BME280;503;48.120;11.488;2022-09-09T09:21:42;95243.69;;;24.60;47.01
1029;BME280;503;48.120;11.488;2022-09-09T09:24:19;95251.00;;;25.09;46.42
1029;BME280;503;48.120;11.488;2022-09-09T09:26:44;95251.47;;;25.67;45.77
1029;BME280;503;48.120;11.488;2022-09-09T09:29:11;95262.78;;;26.25;43.88
1029;BME280;503;48.120;11.488;2022-09-09T09:31:37;95264.41;;;26.67;43.00
1029;BME280;503;48.120;11.488;2022-09-09T09:34:02;95262.50;;;26.98;42.63
1029;BME280;503;48.120;11.488;2022-09-09T09:36:34;95261.13;;;27.17;42.27
1029;BME280;503;48.120;11.488;2022-09-09T09:39:01;95259.44;;;27.30;41.89
1029;BME280;503;48.120;11.488;2022-09-09T09:41:34;95267.19;;;27.35;40.93
1029;BME280;503;48.120;11.488;2022-09-09T09:44:00;95270.22;;;27.41;41.10
1029;BME280;503;48.120;11.488;2022-09-09T09:46:26;95265.63;;;27.34;41.07
1029;BME280;503;48.120;11.488;2022-09-09T09:48:58;95263.81;;;27.24;40.67
1029;BME280;503;48.120;11.488;2022-09-09T09:51:24;95267.91;;;27.02;41.00
1029;BME280;503;48.120;11.488;2022-09-09T09:53:50;95269.69;;;26.81;41.90
1029;BME280;503;48.120;11.488;2022-09-09T09:56:17;95277.72;;;26.58;42.54
1029;BME280;503;48.120;11.488;2022-09-09T09:58:51;95269.72;;;26.33;43.35
1029;BME280;503;48.120;11.488;2022-09-09T10:03:59;95262.31;;;25.85;44.30
1029;BME280;503;48.120;11.488;2022-09-09T10:06:29;95263.13;;;25.71;44.92
1029;BME280;503;48.120;11.488;2022-09-09T10:08:54;95265.16;;;25.53;45.28
1029;BME280;503;48.120;11.488;2022-09-09T10:14:02;95262.50;;;25.38;45.92
1029;BME280;503;48.120;11.488;2022-09-09T10:19:16;95260.47;;;25.60;45.98
1029;BME280;503;48.120;11.488;2022-09-09T10:22:22;95263.88;;;25.79;45.73
1029;BME280;503;48.120;11.488;2022-09-09T10:27:10;95272.22;;;26.13;44.77
1029;BME280;503;48.120;11.488;2022-09-09T10:40:28;95257.59;;;27.51;41.33
1029;BME280;503;48.120;11.488;2022-09-09T10:42:45;95256.53;;;27.75;40.83
1029;BME280;503;48.120;11.488;2022-09-09T10:45:28;95261.63;;;28.00;40.16
1029;BME280;503;48.120;11.488;2022-09-09T10:55:25;95258.97;;;28.90;37.92
1029;BME280;503;48.120;11.488;2022-09-09T10:57:53;95259.72;;;29.14;36.89
1029;BME280;503;48.120;11.488;2022-09-09T11:00:20;95255.00;;;29.35;36.46
1029;BME280;503;48.120;11.488;2022-09-09T11:02:56;95248.66;;;29.58;36.15
1029;BME280;503;48.120;11.488;2022-09-09T11:05:23;95252.63;;;29.73;35.90
1029;BME280;503;48.120;11.488;2022-09-09T11:07:54;95249.44;;;29.94;35.43
1029;BME280;503;48.120;11.488;2022-09-09T11:12:54;95252.84;;;29.98;34.65
1029;BME280;503;48.120;11.488;2022-09-09T11:15:45;95256.03;;;29.61;34.19
1029;BME280;503;48.120;11.488;2022-09-09T11:18:11;95259.28;;;29.56;34.74
1029;BME280;503;48.120;11.488;2022-09-09T11:20:38;95252.75;;;29.49;35.01
1029;BME280;503;48.120;11.488;2022-09-09T11:23:05;95259.56;;;29.61;34.45
1029;BME280;503;48.120;11.488;2022-09-09T11:25:41;95256.47;;;29.59;34.31
1029;BME280;503;48.120;11.488;2022-09-09T11:33:33;95259.47;;;30.01;33.84
1029;BME280;503;48.120;11.488;2022-09-09T11:36:16;95248.00;;;30.22;33.77
1029;BME280;503;48.120;11.488;2022-09-09T11:38:50;95260.94;;;30.06;33.69
1029;BME280;503;48.120;11.488;2022-09-09T11:41:16;95256.25;;;29.70;33.57
1029;BME280;503;48.120;11.488;2022-09-09T11:43:43;95250.41;;;29.68;34.21
1029;BME280;503;48.120;11.488;2022-09-09T11:46:10;95256.84;;;29.77;34.30
1029;BME280;503;48.120;11.488;2022-09-09T11:48:58;95256.06;;;29.77;34.19
1029;BME280;503;48.120;11.488;2022-09-09T11:53:48;95246.56;;;29.06;35.31
1029;BME280;503;48.120;11.488;2022-09-09T11:56:23;95248.59;;;29.41;35.57
1029;BME280;503;48.120;11.488;2022-09-09T11:59:23;95255.78;;;29.55;35.46
1029;BME280;503;48.120;11.488;2022-09-09T12:01:41;95256.47;;;29.19;35.52
1029;BME280;503;48.120;11.488;2022-09-09T12:09:30;95247.91;;;29.57;35.37
1029;BME280;503;48.120;11.488;2022-09-09T12:11:53;95247.97;;;30.06;34.16
1029;BME280;503;48.120;11.488;2022-09-09T12:14:37;95241.75;;;30.38;34.15
1029;BME280;503;48.120;11.488;2022-09-09T12:19:47;95245.66;;;30.70;32.71
1029;BME280;503;48.120;11.488;2022-09-09T12:27:20;95236.22;;;30.71;32.31
1029;BME280;503;48.120;11.488;2022-09-09T12:32:24;95225.53;;;31.18;32.07
1029;BME280;503;48.120;11.488;2022-09-09T12:34:53;95229.34;;;31.08;32.33
1029;BME280;503;48.120;11.488;2022-09-09T12:39:46;95227.38;;;30.63;32.67
1029;BME280;503;48.120;11.488;2022-09-09T12:42:16;95228.41;;;30.69;33.23
1029;BME280;503;48.120;11.488;2022-09-09T12:44:50;95234.59;;;30.57;32.97
1029;BME280;503;48.120;11.488;2022-09-09T12:47:15;95230.84;;;30.35;33.65
1029;BME280;503;48.120;11.488;2022-09-09T12:49:40;95225.09;;;30.45;34.05
1029;BME280;503;48.120;11.488;2022-09-09T12:52:22;95225.78;;;30.49;33.58
1029;BME280;503;48.120;11.488;2022-09-09T12:54:48;95226.16;;;30.80;32.32
1029;BME280;503;48.120;11.488;2022-09-09T12:57:16;95218.41;;;30.14;32.18
1029;BME280;503;48.120;11.488;2022-09-09T12:59:42;95218.41;;;30.46;32.41
1029;BME280;503;48.120;11.488;2022-09-09T13:02:23;95215.19;;;30.64;32.16
1029;BME280;503;48.120;11.488;2022-09-09T13:04:48;95219.72;;;30.25;32.82
1029;BME280;503;48.120;11.488;2022-09-09T13:07:15;95215.31;;;30.44;33.26
1029;BME280;503;48.120;11.488;2022-09-09T13:09:41;95210.81;;;30.67;33.40
1029;BME280;503;48.120;11.488;2022-09-09T13:12:10;95215.78;;;30.88;32.75
1029;BME280;503;48.120;11.488;2022-09-09T13:14:38;95212.41;;;31.10;32.74
1029;BME280;503;48.120;11.488;2022-09-09T13:17:04;95198.38;;;31.20;32.10
1029;BME280;503;48.120;11.488;2022-09-09T13:19:32;95197.41;;;31.27;31.57
1029;BME280;503;48.120;11.488;2022-09-09T13:21:59;95208.69;;;31.58;30.24
1029;BME280;503;48.120;11.488;2022-09-09T13:24:31;95194.19;;;31.70;30.04
1029;BME280;503;48.120;11.488;2022-09-09T13:26:57;95186.28;;;31.18;29.82
1029;BME280;503;48.120;11.488;2022-09-09T13:29:23;95183.81;;;30.94;29.85
1029;BME280;503;48.120;11.488;2022-09-09T13:31:48;95190.84;;;30.50;31.71
1029;BME280;503;48.120;11.488;2022-09-09T13:34:26;95171.59;;;30.37;32.03
1029;BME280;503;48.120;11.488;2022-09-09T13:37:02;95178.88;;;29.62;32.92
1029;BME280;503;48.120;11.488;2022-09-09T13:39:28;95177.34;;;29.77;32.91
1029;BME280;503;48.120;11.488;2022-09-09T13:41:54;95180.56;;;29.56;33.52
1029;BME280;503;48.120;11.488;2022-09-09T13:44:27;95176.84;;;29.10;33.76
1029;BME280;503;48.120;11.488;2022-09-09T13:47:00;95174.44;;;29.12;34.12
1029;BME280;503;48.120;11.488;2022-09-09T13:49:27;95176.47;;;28.02;35.53
1029;BME280;503;48.120;11.488;2022-09-09T13:52:03;95172.47;;;28.73;35.18
1029;BME280;503;48.120;11.488;2022-09-09T13:54:28;95165.53;;;28.68;35.49
1029;BME280;503;48.120;11.488;2022-09-09T13:56:55;95166.34;;;28.45;35.65
1029;BME280;503;48.120;11.488;2022-09-09T13:59:24;95181.44;;;28.30;36.31
1029;BME280;503;48.120;11.488;2022-09-09T14:01:49;95172.56;;;27.99;37.14
1029;BME280;503;48.120;11.488;2022-09-09T14:04:14;95174.06;;;28.04;37.10
1029;BME280;503;48.120;11.488;2022-09-09T14:06:40;95173.47;;;27.92;37.29
1029;BME280;503;48.120;11.488;2022-09-09T14:09:06;95180.50;;;28.17;36.92
1029;BME280;503;48.120;11.488;2022-09-09T14:11:32;95172.81;;;28.32;36.42
1029;BME280;503;48.120;11.488;2022-09-09T14:13:57;95171.59;;;28.36;36.48
1029;BME280;503;48.120;11.488;2022-09-09T14:16:22;95174.97;;;27.97;36.85
1029;BME280;503;48.120;11.488;2022-09-09T14:18:47;95173.69;;;28.25;36.98
1029;BME280;503;48.120;11.488;2022-09-09T14:21:13;95183.00;;;28.31;36.95
1029;BME280;503;48.120;11.488;2022-09-09T14:23:39;95178.13;;;28.42;37.06
1029;BME280;503;48.120;11.488;2022-09-09T14:26:05;95180.91;;;27.65;37.78
1029;BME280;503;48.120;11.488;2022-09-09T14:28:31;95184.13;;;28.10;37.18
1029;BME280;503;48.120;11.488;2022-09-09T14:30:58;95176.56;;;28.18;36.95
1029;BME280;503;48.120;11.488;2022-09-09T14:33:24;95183.13;;;28.01;37.15
1029;BME280;503;48.120;11.488;2022-09-09T14:35:54;95187.44;;;27.75;37.54
1029;BME280;503;48.120;11.488;2022-09-09T14:38:20;95189.00;;;27.45;38.13
1029;BME280;503;48.120;11.488;2022-09-09T14:40:45;95192.09;;;27.47;37.98
1029;BME280;503;48.120;11.488;2022-09-09T14:43:11;95192.25;;;27.36;38.67
1029;BME280;503;48.120;11.488;2022-09-09T14:45:37;95193.00;;;27.37;38.10
1029;BME280;503;48.120;11.488;2022-09-09T14:48:03;95198.63;;;27.26;37.99
1029;BME280;503;48.120;11.488;2022-09-09T14:50:28;95198.31;;;27.20;37.83
1029;BME280;503;48.120;11.488;2022-09-09T14:52:53;95196.44;;;27.14;37.90
1029;BME280;503;48.120;11.488;2022-09-09T14:55:18;95201.44;;;26.85;38.66
1029;BME280;503;48.120;11.488;2022-09-09T14:57:44;95200.94;;;26.93;38.53
1029;BME280;503;48.120;11.488;2022-09-09T15:00:10;95209.50;;;26.95;38.67
1029;BME280;503;48.120;11.488;2022-09-09T15:02:36;95202.50;;;26.94;38.97
1029;BME280;503;48.120;11.488;2022-09-09T15:05:02;95204.81;;;26.96;38.64
1029;BME280;503;48.120;11.488;2022-09-09T15:07:28;95199.75;;;26.94;38.84